Time;durP1;ratioP1;P1;durP2;ratioP2;P2;SDS_P1;SDS_P2;PMS_P1;PMS_P2;Temp;Humidity;BMP_temperature;BMP_pressure;BME280_temperature;BME280_humidity;BME280_pressure;Samples;Min_cycle;Max_cycle;Signal;HPM_P1;HPM_P2
2023/01/21 00:02:11;;;;;;;;;;;15.90;60.70;;;;;;10371991;28;94469;-60
2023/01/21 00:07:13;;;;;;;;;;;15.80;60.80;;;;;;10370931;28;93615;-60
2023/01/21 00:12:15;;;;;;;;;;;15.80;60.70;;;;;;10332682;28;92523;-60
2023/01/21 00:17:16;;;;;;;;;;;15.70;60.70;;;;;;10329816;28;94445;-60
2023/01/21 00:22:18;;;;;;;;;;;15.70;60.60;;;;;;10327612;28;96554;-59
2023/01/21 00:27:20;;;;;;;;;;;15.70;60.50;;;;;;10326741;28;96448;-60
2023/01/21 00:32:22;;;;;;;;;;;15.60;60.50;;;;;;10336684;28;94261;-60
2023/01/21 00:37:24;;;;;;;;;;;15.60;60.50;;;;;;10334638;28;93957;-60
2023/01/21 00:42:26;;;;;;;;;;;15.60;60.50;;;;;;10334941;28;94900;-60
2023/01/21 00:47:28;;;;;;;;;;;15.60;60.50;;;;;;10335979;28;93599;-60
2023/01/21 00:52:30;;;;;;;;;;;15.50;60.40;;;;;;10335806;28;94462;-60
2023/01/21 00:57:32;;;;;;;;;;;15.50;60.40;;;;;;10336086;28;93810;-60
2023/01/21 01:02:34;;;;;;;;;;;15.50;60.40;;;;;;10336422;28;93586;-60
2023/01/21 01:07:35;;;;;;;;;;;15.50;60.40;;;;;;10332770;28;94495;-60
2023/01/21 01:12:37;;;;;;;;;;;15.50;60.30;;;;;;10335373;28;93802;-61
2023/01/21 01:17:39;;;;;;;;;;;15.40;60.20;;;;;;10332281;28;96427;-60
2023/01/21 01:22:40;;;;;;;;;;;15.40;60.30;;;;;;10335016;28;93664;-61
2023/01/21 01:27:42;;;;;;;;;;;15.40;60.20;;;;;;10335179;28;93190;-60
2023/01/21 01:32:44;;;;;;;;;;;15.40;60.00;;;;;;10334828;28;94633;-61
2023/01/21 01:37:45;;;;;;;;;;;15.40;59.90;;;;;;10334447;28;94427;-61
2023/01/21 01:42:47;;;;;;;;;;;15.40;59.80;;;;;;10332578;28;93437;-60
2023/01/21 01:47:58;;;;;;;;;;;15.30;59.60;;;;;;10333387;28;93344;-60
2023/01/21 01:53:00;;;;;;;;;;;15.30;59.80;;;;;;10335000;28;92731;-60
2023/01/21 01:58:05;;;;;;;;;;;15.30;59.80;;;;;;10333870;28;93558;-60
2023/01/21 02:08:27;;;;;;;;;;;15.30;59.80;;;;;;10329238;28;96495;-61
2023/01/21 02:13:30;;;;;;;;;;;15.30;59.70;;;;;;10332380;28;93493;-60
2023/01/21 02:18:37;;;;;;;;;;;15.30;59.60;;;;;;10333097;28;94572;-60
2023/01/21 02:23:47;;;;;;;;;;;15.30;59.40;;;;;;10333087;28;93506;-60
2023/01/21 02:28:55;;;;;;;;;;;15.30;59.40;;;;;;10332733;28;94219;-60
2023/01/21 02:34:15;;;;;;;;;;;15.30;59.30;;;;;;10333727;28;93507;-60
2023/01/21 02:39:29;;;;;;;;;;;15.20;59.20;;;;;;10333185;28;93130;-60
2023/01/21 02:44:47;;;;;;;;;;;15.20;59.60;;;;;;10333981;28;92160;-60
2023/01/21 02:49:53;;;;;;;;;;;15.20;59.50;;;;;;10333171;28;93952;-60
2023/01/21 02:54:56;;;;;;;;;;;15.20;59.40;;;;;;10330071;28;94526;-60
2023/01/21 02:59:58;;;;;;;;;;;15.30;59.20;;;;;;10329713;28;96909;-60
2023/01/21 03:05:09;;;;;;;;;;;15.20;59.20;;;;;;10330404;28;93768;-60
2023/01/21 03:10:25;;;;;;;;;;;15.20;59.10;;;;;;10331211;28;92593;-60
2023/01/21 03:21:14;;;;;;;;;;;15.20;58.90;;;;;;10331493;28;93308;-60
2023/01/21 03:26:19;;;;;;;;;;;15.10;59.30;;;;;;10331885;28;94994;-60
2023/01/21 03:31:24;;;;;;;;;;;15.20;59.40;;;;;;10331484;28;94704;-60
2023/01/21 03:36:26;;;;;;;;;;;15.20;59.30;;;;;;10330640;28;93121;-59
2023/01/21 03:41:32;;;;;;;;;;;15.20;59.10;;;;;;10330858;28;93724;-60
2023/01/21 03:46:48;;;;;;;;;;;15.20;59.00;;;;;;10329944;28;93396;-60
2023/01/21 03:51:52;;;;;;;;;;;15.20;59.00;;;;;;10326392;28;95233;-60
2023/01/21 03:56:53;;;;;;;;;;;15.10;58.90;;;;;;10329623;28;94489;-59
2023/01/21 04:01:55;;;;;;;;;;;15.10;58.90;;;;;;10329576;28;93512;-60
2023/01/21 04:06:57;;;;;;;;;;;15.10;59.40;;;;;;10336366;28;93432;-60
2023/01/21 04:11:59;;;;;;;;;;;15.10;59.10;;;;;;10337988;28;94082;-60
2023/01/21 04:17:01;;;;;;;;;;;15.10;59.10;;;;;;10337183;28;94432;-60
2023/01/21 04:22:02;;;;;;;;;;;15.10;59.00;;;;;;10335462;28;93380;-60
2023/01/21 04:27:04;;;;;;;;;;;15.10;59.00;;;;;;10337583;28;92770;-60
2023/01/21 04:32:05;;;;;;;;;;;15.10;59.00;;;;;;10337303;28;94440;-60
2023/01/21 04:37:07;;;;;;;;;;;15.00;59.00;;;;;;10336398;28;94504;-60
2023/01/21 04:42:09;;;;;;;;;;;15.00;58.90;;;;;;10334645;28;96932;-60
2023/01/21 06:04:29;;;;;;;;;;;15.50;58.80;;;;;;10316590;28;93213;-60
2023/01/21 06:09:31;;;;;;;;;;;15.80;58.30;;;;;;10374536;28;94510;-60
2023/01/21 06:14:32;;;;;;;;;;;16.00;57.90;;;;;;10374211;28;94225;-60
2023/01/21 06:19:34;;;;;;;;;;;16.20;57.60;;;;;;10375335;28;94453;-60
2023/01/21 06:24:36;;;;;;;;;;;16.40;57.40;;;;;;10375551;28;93720;-60
2023/01/21 06:29:37;;;;;;;;;;;16.60;57.00;;;;;;10373427;28;93253;-60
2023/01/21 06:34:39;;;;;;;;;;;16.70;56.70;;;;;;10374696;28;93170;-60
2023/01/21 06:39:42;;;;;;;;;;;16.80;56.40;;;;;;10371782;28;96644;-60
2023/01/21 06:44:44;;;;;;;;;;;16.90;56.20;;;;;;10371953;28;93202;-60
2023/01/21 06:49:45;;;;;;;;;;;17.00;55.90;;;;;;10373408;28;93400;-60
2023/01/21 06:54:47;;;;;;;;;;;17.10;55.60;;;;;;10373463;28;92986;-60
2023/01/21 06:59:49;;;;;;;;;;;17.20;55.60;;;;;;10371468;28;93474;-60
2023/01/21 07:04:51;;;;;;;;;;;17.20;55.40;;;;;;10372265;28;93250;-60
2023/01/21 07:09:53;;;;;;;;;;;17.10;55.40;;;;;;10373143;28;93620;-60
2023/01/21 07:14:55;;;;;;;;;;;17.00;55.50;;;;;;10372417;28;93687;-60
2023/01/21 07:19:56;;;;;;;;;;;17.00;55.60;;;;;;10373289;28;93775;-60
2023/01/21 07:24:58;;;;;;;;;;;17.00;55.90;;;;;;10372436;28;94016;-60
2023/01/21 07:30:00;;;;;;;;;;;17.10;55.90;;;;;;10370361;28;97680;-60
2023/01/21 07:35:01;;;;;;;;;;;17.20;55.90;;;;;;10372262;28;93175;-60
2023/01/21 07:40:03;;;;;;;;;;;17.30;55.70;;;;;;10370830;28;92722;-60
2023/01/21 07:45:05;;;;;;;;;;;17.40;55.70;;;;;;10370305;28;94455;-61
2023/01/21 07:50:07;;;;;;;;;;;17.30;55.60;;;;;;10371493;28;93423;-60
2023/01/21 07:55:09;;;;;;;;;;;17.30;55.70;;;;;;10371416;28;93416;-60
2023/01/21 08:00:13;;;;;;;;;;;17.20;55.70;;;;;;10369173;28;93521;-60
2023/01/21 08:05:15;;;;;;;;;;;17.20;56.00;;;;;;10370783;28;92690;-60
2023/01/21 08:10:18;;;;;;;;;;;17.20;56.20;;;;;;10371470;28;92857;-60
2023/01/21 08:15:20;;;;;;;;;;;17.30;56.20;;;;;;10369431;28;92709;-60
2023/01/21 08:20:22;;;;;;;;;;;17.40;56.10;;;;;;10368796;28;100117;-61
2023/01/21 08:25:24;;;;;;;;;;;17.50;56.60;;;;;;10370540;28;93437;-60
2023/01/21 08:30:26;;;;;;;;;;;17.60;56.70;;;;;;10370268;28;93422;-60
2023/01/21 08:35:28;;;;;;;;;;;17.60;56.70;;;;;;10369525;28;93282;-60
2023/01/21 08:40:30;;;;;;;;;;;17.70;56.90;;;;;;10369020;28;93475;-60
2023/01/21 08:45:31;;;;;;;;;;;17.80;57.20;;;;;;10371025;28;94549;-60
2023/01/21 08:50:33;;;;;;;;;;;17.90;57.60;;;;;;10373368;28;93548;-61
2023/01/21 08:55:35;;;;;;;;;;;17.90;58.00;;;;;;10378068;28;92715;-60
2023/01/21 09:00:36;;;;;;;;;;;17.80;58.70;;;;;;10377501;28;93958;-60
2023/01/21 09:05:38;;;;;;;;;;;17.70;58.00;;;;;;10375698;28;94607;-60
2023/01/21 09:16:00;;;;;;;;;;;17.60;55.90;;;;;;10376420;28;93494;-61
2023/01/21 09:21:03;;;;;;;;;;;17.60;55.80;;;;;;10375964;28;94416;-60
2023/01/21 09:26:06;;;;;;;;;;;17.70;55.90;;;;;;10374956;28;94443;-60
2023/01/21 09:31:12;;;;;;;;;;;17.70;55.70;;;;;;10376064;28;93472;-61
2023/01/21 09:36:16;;;;;;;;;;;17.80;55.80;;;;;;10375932;28;94502;-60
2023/01/21 09:41:25;;;;;;;;;;;17.80;55.80;;;;;;10376135;28;93503;-60
2023/01/21 09:46:30;;;;;;;;;;;17.70;54.60;;;;;;10358670;28;92824;-60
2023/01/21 09:51:45;;;;;;;;;;;17.60;54.70;;;;;;10374516;28;94399;-60
2023/01/21 09:56:59;;;;;;;;;;;17.50;55.10;;;;;;10375888;28;93392;-60
2023/01/21 10:02:06;;;;;;;;;;;17.40;55.30;;;;;;10370281;28;95312;-60
2023/01/21 10:07:16;;;;;;;;;;;17.20;55.60;;;;;;10375026;28;93488;-60
2023/01/21 10:12:27;;;;;;;;;;;17.10;56.00;;;;;;10374876;28;94810;-60
2023/01/21 10:17:28;;;;;;;;;;;17.00;56.40;;;;;;10376093;28;93456;-60
2023/01/21 10:22:30;;;;;;;;;;;16.90;56.80;;;;;;10375359;28;92591;-60
2023/01/21 10:27:34;;;;;;;;;;;16.80;57.00;;;;;;10374674;28;92953;-60
2023/01/21 10:32:38;;;;;;;;;;;16.70;57.20;;;;;;10375077;28;94140;-60
2023/01/21 10:37:43;;;;;;;;;;;16.60;57.50;;;;;;10372689;28;92718;-60
2023/01/21 10:43:12;;;;;;;;;;;16.50;57.60;;;;;;10373735;28;92471;-60
2023/01/21 10:48:20;;;;;;;;;;;16.40;58.10;;;;;;10349283;28;93817;-61
2023/01/21 10:53:29;;;;;;;;;;;16.40;59.00;;;;;;10370929;28;95850;-61
2023/01/21 10:58:41;;;;;;;;;;;16.40;59.00;;;;;;10373240;28;93348;-61
2023/01/21 11:03:52;;;;;;;;;;;16.50;59.30;;;;;;10356264;28;95087;-61
2023/01/21 11:08:57;;;;;;;;;;;16.50;59.40;;;;;;10373501;28;93105;-60
2023/01/21 11:13:59;;;;;;;;;;;16.50;58.70;;;;;;10372542;28;93566;-59
2023/01/21 11:19:02;;;;;;;;;;;16.50;58.30;;;;;;10371953;28;93844;-60
2023/01/21 11:24:18;;;;;;;;;;;16.40;58.40;;;;;;10372680;28;93375;-60
2023/01/21 11:29:21;;;;;;;;;;;16.30;58.40;;;;;;10372273;28;92713;-60
2023/01/21 11:34:23;;;;;;;;;;;16.30;58.50;;;;;;10372151;28;93502;-60
2023/01/21 11:39:26;;;;;;;;;;;16.20;58.50;;;;;;10373116;28;93376;-60
2023/01/21 11:44:28;;;;;;;;;;;16.10;59.60;;;;;;10370467;28;96772;-60
2023/01/21 11:49:33;;;;;;;;;;;16.10;58.80;;;;;;10370616;28;93455;-60
2023/01/21 11:54:37;;;;;;;;;;;16.00;58.70;;;;;;10371486;28;93346;-60
2023/01/21 11:59:42;;;;;;;;;;;16.00;58.80;;;;;;10371869;28;93024;-60
2023/01/21 12:04:45;;;;;;;;;;;15.90;58.80;;;;;;10371851;28;93637;-60
2023/01/21 12:09:49;;;;;;;;;;;15.80;58.80;;;;;;10372568;28;93418;-60
2023/01/21 12:14:53;;;;;;;;;;;15.80;58.90;;;;;;10371325;28;93207;-60
2023/01/21 12:20:07;;;;;;;;;;;15.70;58.90;;;;;;10372033;28;92709;-60
2023/01/21 12:25:20;;;;;;;;;;;15.70;59.00;;;;;;10373748;28;94474;-60
2023/01/21 12:30:42;;;;;;;;;;;15.60;58.90;;;;;;10378645;28;94504;-61
2023/01/21 12:35:46;;;;;;;;;;;15.60;59.90;;;;;;10376607;28;95840;-60
2023/01/21 12:40:47;;;;;;;;;;;15.50;58.80;;;;;;10376219;28;93527;-60
2023/01/21 12:45:55;;;;;;;;;;;15.50;58.80;;;;;;10378657;28;94461;-60
2023/01/21 12:51:00;;;;;;;;;;;15.40;58.80;;;;;;10377745;28;93117;-60
2023/01/21 12:56:08;;;;;;;;;;;15.40;58.80;;;;;;10376973;28;94247;-60
2023/01/21 13:01:15;;;;;;;;;;;15.40;59.00;;;;;;10377636;28;93275;-60
2023/01/21 13:06:20;;;;;;;;;;;15.30;58.90;;;;;;10377813;28;94402;-60
2023/01/21 13:11:28;;;;;;;;;;;15.30;59.00;;;;;;10378903;28;93417;-60
2023/01/21 13:16:30;;;;;;;;;;;15.30;59.00;;;;;;10377186;28;94394;-61
2023/01/21 13:21:37;;;;;;;;;;;15.30;59.10;;;;;;10377242;28;93625;-60
2023/01/21 13:26:50;;;;;;;;;;;15.20;59.00;;;;;;10374539;28;95898;-60
2023/01/21 13:32:10;;;;;;;;;;;15.20;59.00;;;;;;10376422;28;92850;-60
2023/01/21 13:37:19;;;;;;;;;;;15.20;59.10;;;;;;10376727;28;93659;-60
2023/01/21 13:42:27;;;;;;;;;;;15.20;59.10;;;;;;10377486;28;93384;-60
2023/01/21 13:47:47;;;;;;;;;;;15.10;59.10;;;;;;10375857;28;93547;-60
2023/01/21 13:52:52;;;;;;;;;;;15.10;59.10;;;;;;10376659;28;94190;-60
2023/01/21 13:57:53;;;;;;;;;;;15.10;59.10;;;;;;10375489;28;93504;-59
2023/01/21 14:02:55;;;;;;;;;;;15.10;59.10;;;;;;10374236;28;92388;-59
2023/01/21 14:08:00;;;;;;;;;;;15.00;59.00;;;;;;10375400;28;93629;-59
2023/01/21 14:13:02;;;;;;;;;;;15.00;59.10;;;;;;10375642;28;93112;-59
2023/01/21 14:18:30;;;;;;;;;;;15.00;59.00;;;;;;10372763;28;96887;-60
2023/01/21 14:23:51;;;;;;;;;;;15.00;59.00;;;;;;10375482;28;94676;-59
2023/01/21 14:28:52;;;;;;;;;;;15.00;59.00;;;;;;10374497;28;93288;-59
2023/01/21 14:34:03;;;;;;;;;;;14.90;59.00;;;;;;10373084;28;92811;-59
2023/01/21 14:39:19;;;;;;;;;;;14.90;58.90;;;;;;10374912;28;94531;-59
2023/01/21 14:44:36;;;;;;;;;;;14.90;59.00;;;;;;10374495;28;92561;-60
2023/01/21 14:49:39;;;;;;;;;;;14.90;59.00;;;;;;10372764;28;93810;-60
2023/01/21 14:54:42;;;;;;;;;;;14.90;58.90;;;;;;10374895;28;93749;-59
2023/01/21 14:59:44;;;;;;;;;;;14.80;58.90;;;;;;10372161;28;94275;-60
2023/01/21 15:04:57;;;;;;;;;;;14.80;59.00;;;;;;10373584;28;93505;-60
2023/01/21 15:10:00;;;;;;;;;;;14.80;58.90;;;;;;10371447;28;96640;-60
2023/01/21 15:15:22;;;;;;;;;;;14.80;58.90;;;;;;10373337;28;93921;-60
2023/01/21 15:20:39;;;;;;;;;;;14.80;58.80;;;;;;10373131;28;95550;-60
2023/01/21 15:26:13;;;;;;;;;;;14.80;58.80;;;;;;10372273;28;93622;-60
2023/01/21 15:31:22;;;;;;;;;;;14.70;58.80;;;;;;10338088;28;93255;-60
2023/01/21 15:36:26;;;;;;;;;;;14.70;58.70;;;;;;10373662;28;93498;-59
2023/01/21 15:41:28;;;;;;;;;;;14.70;58.70;;;;;;10372079;28;93438;-60
2023/01/21 15:46:54;;;;;;;;;;;14.70;58.70;;;;;;10373270;28;93080;-59
2023/01/21 15:52:12;;;;;;;;;;;14.70;58.70;;;;;;10371297;28;92573;-59
2023/01/21 15:57:32;;;;;;;;;;;14.70;58.80;;;;;;10372220;28;93451;-60
2023/01/21 16:02:43;;;;;;;;;;;14.70;58.80;;;;;;10373298;28;96472;-60
2023/01/21 16:07:59;;;;;;;;;;;14.70;58.70;;;;;;10376951;28;93465;-60
2023/01/21 16:13:09;;;;;;;;;;;14.70;58.80;;;;;;10379161;28;93105;-59
2023/01/21 16:18:25;;;;;;;;;;;14.60;58.70;;;;;;10378449;28;93734;-59
2023/01/21 16:23:31;;;;;;;;;;;14.70;58.90;;;;;;10379385;28;92488;-59
2023/01/21 16:28:40;;;;;;;;;;;14.60;58.70;;;;;;10378586;28;93794;-59
2023/01/21 16:33:42;;;;;;;;;;;14.60;58.70;;;;;;10379093;28;93504;-60
2023/01/21 16:38:44;;;;;;;;;;;14.60;58.70;;;;;;10379138;28;92610;-60
2023/01/21 16:43:47;;;;;;;;;;;14.60;58.70;;;;;;10376553;28;94599;-60
2023/01/21 16:48:50;;;;;;;;;;;14.60;58.70;;;;;;10378032;28;94441;-60
2023/01/21 16:53:52;;;;;;;;;;;14.60;58.70;;;;;;10375827;28;96831;-60
2023/01/21 16:58:54;;;;;;;;;;;14.50;58.60;;;;;;10377529;28;94362;-60
2023/01/21 17:04:00;;;;;;;;;;;14.50;58.60;;;;;;10376256;28;94351;-59
2023/01/21 17:09:03;;;;;;;;;;;14.50;58.60;;;;;;10377214;28;93520;-60
2023/01/21 17:14:08;;;;;;;;;;;14.50;58.60;;;;;;10376859;28;93643;-59
2023/01/21 17:19:26;;;;;;;;;;;14.50;58.60;;;;;;10376840;28;94339;-60
2023/01/21 17:24:31;;;;;;;;;;;14.50;58.60;;;;;;10373638;28;92842;-60
2023/01/21 17:29:33;;;;;;;;;;;14.50;58.50;;;;;;10378593;28;92656;-60
2023/01/21 17:34:35;;;;;;;;;;;14.40;58.50;;;;;;10377190;28;93435;-59
2023/01/21 17:39:47;;;;;;;;;;;14.40;58.50;;;;;;10377334;28;94429;-60
2023/01/21 17:44:51;;;;;;;;;;;14.40;58.50;;;;;;10374895;28;96882;-60
2023/01/21 17:50:00;;;;;;;;;;;14.40;58.50;;;;;;10376562;28;93432;-60
2023/01/21 17:55:13;;;;;;;;;;;14.40;58.40;;;;;;10374195;28;92565;-60
2023/01/21 18:00:30;;;;;;;;;;;14.40;58.50;;;;;;10375829;28;93819;-59
2023/01/21 18:05:32;;;;;;;;;;;14.30;58.40;;;;;;10375305;28;94400;-60
2023/01/21 18:10:36;;;;;;;;;;;14.30;58.30;;;;;;10376524;28;93242;-60
2023/01/21 18:15:38;;;;;;;;;;;14.30;58.40;;;;;;10376375;28;93202;-60
2023/01/21 18:20:39;;;;;;;;;;;14.30;58.30;;;;;;10374533;28;93710;-60
2023/01/21 18:25:41;;;;;;;;;;;14.30;58.40;;;;;;10374260;28;94221;-59
2023/01/21 18:30:43;;;;;;;;;;;14.30;58.40;;;;;;10373849;28;94626;-60
2023/01/21 18:35:46;;;;;;;;;;;14.30;58.30;;;;;;10372483;28;96796;-60
2023/01/21 18:40:49;;;;;;;;;;;14.20;58.30;;;;;;10374343;28;94288;-60
2023/01/21 18:45:50;;;;;;;;;;;14.20;58.30;;;;;;10373596;28;93442;-59
2023/01/21 18:50:55;;;;;;;;;;;14.20;58.20;;;;;;10374114;28;93299;-60
2023/01/21 18:55:57;;;;;;;;;;;14.20;58.30;;;;;;10373708;28;94530;-60
2023/01/21 19:00:58;;;;;;;;;;;14.20;58.20;;;;;;10374786;28;93243;-60
2023/01/21 19:06:09;;;;;;;;;;;14.10;58.10;;;;;;10372359;28;94160;-60
2023/01/21 19:11:12;;;;;;;;;;;14.20;58.30;;;;;;10374288;28;93715;-60
2023/01/21 19:16:17;;;;;;;;;;;14.20;58.20;;;;;;10371204;28;113802;-59
2023/01/21 19:21:19;;;;;;;;;;;14.10;58.10;;;;;;10372665;28;94404;-60
2023/01/21 19:26:21;;;;;;;;;;;14.10;58.10;;;;;;10371024;28;95797;-59
2023/01/21 19:31:23;;;;;;;;;;;14.10;58.10;;;;;;10372161;28;93599;-58
2023/01/21 19:36:25;;;;;;;;;;;14.10;58.10;;;;;;10371660;28;93519;-59
2023/01/21 19:41:26;;;;;;;;;;;14.10;58.00;;;;;;10371304;28;93823;-59
2023/01/21 19:46:28;;;;;;;;;;;14.10;58.00;;;;;;10371442;28;93260;-60
2023/01/21 19:51:30;;;;;;;;;;;14.10;58.00;;;;;;10371329;28;93665;-60
2023/01/21 19:56:32;;;;;;;;;;;14.10;58.00;;;;;;10371920;28;92599;-59
2023/01/21 20:01:34;;;;;;;;;;;14.00;58.00;;;;;;10370791;28;92527;-59
2023/01/21 20:06:39;;;;;;;;;;;14.00;57.90;;;;;;10370193;28;94442;-59
2023/01/21 20:11:41;;;;;;;;;;;14.00;58.00;;;;;;10372336;28;94533;-60
2023/01/21 20:16:44;;;;;;;;;;;14.00;57.90;;;;;;10369336;28;95537;-59
2023/01/21 20:21:46;;;;;;;;;;;14.00;57.90;;;;;;10371123;28;93458;-60
2023/01/21 20:27:03;;;;;;;;;;;13.90;57.80;;;;;;10371526;28;94641;-60
2023/01/21 20:32:09;;;;;;;;;;;13.90;57.80;;;;;;10368741;28;93465;-60
2023/01/21 20:37:12;;;;;;;;;;;13.90;57.80;;;;;;10371396;28;93488;-59
2023/01/21 20:42:14;;;;;;;;;;;13.90;58.20;;;;;;10370181;28;92823;-60
2023/01/21 20:47:21;;;;;;;;;;;13.90;58.00;;;;;;10374130;28;93248;-59
2023/01/21 20:52:39;;;;;;;;;;;13.90;58.00;;;;;;10378835;28;92674;-60
2023/01/21 20:57:41;;;;;;;;;;;14.10;57.90;;;;;;10376707;28;94512;-60
2023/01/21 21:02:44;;;;;;;;;;;14.30;57.70;;;;;;10375209;28;93704;-59
2023/01/21 21:07:45;;;;;;;;;;;14.50;57.40;;;;;;10374776;28;96935;-60
2023/01/21 21:12:48;;;;;;;;;;;14.70;57.10;;;;;;10377496;28;94531;-60
2023/01/21 21:17:50;;;;;;;;;;;14.80;56.70;;;;;;10376143;28;94261;-59
2023/01/21 21:22:52;;;;;;;;;;;14.80;56.50;;;;;;10377889;28;94455;-60
2023/01/21 21:27:54;;;;;;;;;;;14.90;56.40;;;;;;10376471;28;93307;-60
2023/01/21 21:32:56;;;;;;;;;;;14.80;56.30;;;;;;10376874;28;94454;-60
2023/01/21 21:38:00;;;;;;;;;;;14.90;56.40;;;;;;10375537;28;92991;-60
2023/01/21 21:48:38;;;;;;;;;;;15.10;56.30;;;;;;10374615;28;94480;-60
2023/01/21 21:53:40;;;;;;;;;;;15.30;56.00;;;;;;10375297;28;93488;-60
2023/01/21 21:58:42;;;;;;;;;;;15.40;55.70;;;;;;10372036;28;96725;-60
2023/01/21 22:03:44;;;;;;;;;;;15.60;55.50;;;;;;10375558;28;94098;-60
2023/01/21 22:08:46;;;;;;;;;;;15.60;55.90;;;;;;10375014;28;94732;-60
2023/01/21 22:13:49;;;;;;;;;;;15.60;56.60;;;;;;10375625;28;94559;-60
2023/01/21 22:18:52;;;;;;;;;;;15.60;56.70;;;;;;10375457;28;93523;-60
2023/01/21 22:23:53;;;;;;;;;;;15.40;56.50;;;;;;10374775;28;94394;-60
2023/01/21 22:28:55;;;;;;;;;;;15.40;56.60;;;;;;10374194;28;93563;-60
2023/01/21 22:33:57;;;;;;;;;;;15.30;56.70;;;;;;10375954;28;93817;-59
2023/01/21 22:38:59;;;;;;;;;;;15.20;56.80;;;;;;10373565;28;93280;-60
2023/01/21 22:44:01;;;;;;;;;;;15.10;57.00;;;;;;10374704;28;94552;-59
2023/01/21 22:49:03;;;;;;;;;;;15.00;57.10;;;;;;10370710;28;96790;-60
2023/01/21 22:54:06;;;;;;;;;;;14.90;57.20;;;;;;10374340;28;94200;-60
2023/01/21 22:59:08;;;;;;;;;;;14.90;57.40;;;;;;10372984;28;93445;-60
2023/01/21 23:04:10;;;;;;;;;;;14.80;57.40;;;;;;10360905;28;93932;-61
2023/01/21 23:09:14;;;;;;;;;;;14.80;57.50;;;;;;10332102;28;93825;-61
2023/01/21 23:14:16;;;;;;;;;;;14.70;57.50;;;;;;10332066;28;93250;-59
2023/01/21 23:19:17;;;;;;;;;;;14.70;57.80;;;;;;10329832;28;93132;-59
2023/01/21 23:24:20;;;;;;;;;;;14.70;57.80;;;;;;10332106;28;92470;-58
2023/01/21 23:29:22;;;;;;;;;;;14.70;57.90;;;;;;10331280;28;93516;-58
2023/01/21 23:34:24;;;;;;;;;;;14.70;57.80;;;;;;10331148;28;93519;-60
2023/01/21 23:39:25;;;;;;;;;;;14.70;57.70;;;;;;10327940;28;96585;-60
2023/01/21 23:44:27;;;;;;;;;;;14.70;57.70;;;;;;10330412;28;94355;-60
2023/01/21 23:49:29;;;;;;;;;;;14.70;57.60;;;;;;10330602;28;94419;-59
2023/01/21 23:54:31;;;;;;;;;;;14.70;57.90;;;;;;10331178;28;92770;-59
2023/01/21 23:59:34;;;;;;;;;;;14.80;58.00;;;;;;10330988;28;93503;-60
